sensor_id;sensor_type;location;lat;lon;timestamp;P1;durP1;ratioP1;P2;durP2;ratioP2
66927;SDS011;59882;45.624;11.698;2024-01-30T00:01:28;67.70;;;46.05;;
66927;SDS011;59882;45.624;11.698;2024-01-30T00:03:53;69.37;;;45.67;;
66927;SDS011;59882;45.624;11.698;2024-01-30T00:06:19;69.73;;;46.67;;
66927;SDS011;59882;45.624;11.698;2024-01-30T00:08:48;76.43;;;47.05;;
66927;SDS011;59882;45.624;11.698;2024-01-30T00:11:14;74.32;;;46.97;;
66927;SDS011;59882;45.624;11.698;2024-01-30T00:13:41;69.60;;;46.90;;
66927;SDS011;59882;45.624;11.698;2024-01-30T00:16:07;74.77;;;46.17;;
66927;SDS011;59882;45.624;11.698;2024-01-30T00:18:34;74.80;;;46.55;;
66927;SDS011;59882;45.624;11.698;2024-01-30T00:20:59;75.17;;;47.97;;
66927;SDS011;59882;45.624;11.698;2024-01-30T00:23:25;72.10;;;45.73;;
66927;SDS011;59882;45.624;11.698;2024-01-30T00:25:50;64.80;;;42.87;;
66927;SDS011;59882;45.624;11.698;2024-01-30T00:28:16;62.70;;;42.57;;
66927;SDS011;59882;45.624;11.698;2024-01-30T00:30:42;65.18;;;44.58;;
66927;SDS011;59882;45.624;11.698;2024-01-30T00:33:08;64.93;;;44.17;;
66927;SDS011;59882;45.624;11.698;2024-01-30T00:35:34;70.10;;;44.67;;
66927;SDS011;59882;45.624;11.698;2024-01-30T00:37:59;61.27;;;42.60;;
66927;SDS011;59882;45.624;11.698;2024-01-30T00:40:25;68.45;;;45.55;;
66927;SDS011;59882;45.624;11.698;2024-01-30T00:42:51;69.97;;;45.00;;
66927;SDS011;59882;45.624;11.698;2024-01-30T00:45:17;67.47;;;42.47;;
66927;SDS011;59882;45.624;11.698;2024-01-30T00:47:42;65.90;;;40.20;;
66927;SDS011;59882;45.624;11.698;2024-01-30T00:50:08;67.73;;;41.27;;
66927;SDS011;59882;45.624;11.698;2024-01-30T00:52:34;67.70;;;42.45;;
66927;SDS011;59882;45.624;11.698;2024-01-30T00:55:01;63.85;;;40.45;;
66927;SDS011;59882;45.624;11.698;2024-01-30T00:57:27;65.38;;;42.67;;
66927;SDS011;59882;45.624;11.698;2024-01-30T00:59:53;65.87;;;41.93;;
66927;SDS011;59882;45.624;11.698;2024-01-30T01:02:19;65.68;;;43.67;;
66927;SDS011;59882;45.624;11.698;2024-01-30T01:04:44;68.83;;;43.30;;
66927;SDS011;59882;45.624;11.698;2024-01-30T01:07:10;64.97;;;43.20;;
66927;SDS011;59882;45.624;11.698;2024-01-30T01:09:36;65.07;;;41.70;;
66927;SDS011;59882;45.624;11.698;2024-01-30T01:12:02;63.30;;;41.83;;
66927;SDS011;59882;45.624;11.698;2024-01-30T01:14:28;64.57;;;42.95;;
66927;SDS011;59882;45.624;11.698;2024-01-30T01:16:54;70.53;;;44.10;;
66927;SDS011;59882;45.624;11.698;2024-01-30T01:19:20;64.78;;;42.08;;
66927;SDS011;59882;45.624;11.698;2024-01-30T01:21:45;67.53;;;43.70;;
66927;SDS011;59882;45.624;11.698;2024-01-30T01:24:11;66.22;;;43.80;;
66927;SDS011;59882;45.624;11.698;2024-01-30T01:26:36;65.93;;;42.63;;
66927;SDS011;59882;45.624;11.698;2024-01-30T01:29:02;64.40;;;40.63;;
66927;SDS011;59882;45.624;11.698;2024-01-30T01:31:34;64.15;;;41.47;;
66927;SDS011;59882;45.624;11.698;2024-01-30T01:34:12;68.75;;;42.85;;
66927;SDS011;59882;45.624;11.698;2024-01-30T01:36:38;63.75;;;40.47;;
66927;SDS011;59882;45.624;11.698;2024-01-30T01:39:04;56.17;;;37.85;;
66927;SDS011;59882;45.624;11.698;2024-01-30T01:41:33;60.50;;;39.07;;
66927;SDS011;59882;45.624;11.698;2024-01-30T01:43:59;63.53;;;41.38;;
66927;SDS011;59882;45.624;11.698;2024-01-30T01:46:29;60.03;;;39.00;;
66927;SDS011;59882;45.624;11.698;2024-01-30T01:48:57;61.25;;;40.15;;
66927;SDS011;59882;45.624;11.698;2024-01-30T01:51:26;60.63;;;40.80;;
66927;SDS011;59882;45.624;11.698;2024-01-30T01:53:56;59.90;;;40.28;;
66927;SDS011;59882;45.624;11.698;2024-01-30T01:56:23;64.97;;;41.45;;
66927;SDS011;59882;45.624;11.698;2024-01-30T01:58:49;65.88;;;42.25;;
66927;SDS011;59882;45.624;11.698;2024-01-30T02:01:16;63.13;;;41.13;;
66927;SDS011;59882;45.624;11.698;2024-01-30T02:03:45;65.07;;;41.17;;
66927;SDS011;59882;45.624;11.698;2024-01-30T02:06:12;68.32;;;41.72;;
66927;SDS011;59882;45.624;11.698;2024-01-30T02:08:41;63.05;;;42.17;;
66927;SDS011;59882;45.624;11.698;2024-01-30T02:11:07;66.07;;;42.88;;
66927;SDS011;59882;45.624;11.698;2024-01-30T02:13:33;59.87;;;40.03;;
66927;SDS011;59882;45.624;11.698;2024-01-30T02:15:59;63.33;;;40.83;;
66927;SDS011;59882;45.624;11.698;2024-01-30T02:18:26;68.05;;;43.00;;
66927;SDS011;59882;45.624;11.698;2024-01-30T02:20:52;75.60;;;45.70;;
66927;SDS011;59882;45.624;11.698;2024-01-30T02:23:20;95.07;;;55.73;;
66927;SDS011;59882;45.624;11.698;2024-01-30T02:25:49;96.90;;;54.35;;
66927;SDS011;59882;45.624;11.698;2024-01-30T02:28:14;83.55;;;50.15;;
66927;SDS011;59882;45.624;11.698;2024-01-30T02:30:42;81.63;;;48.63;;
66927;SDS011;59882;45.624;11.698;2024-01-30T02:33:08;80.70;;;47.28;;
66927;SDS011;59882;45.624;11.698;2024-01-30T02:35:33;82.37;;;48.63;;
66927;SDS011;59882;45.624;11.698;2024-01-30T02:37:59;77.17;;;45.27;;
66927;SDS011;59882;45.624;11.698;2024-01-30T02:40:25;78.23;;;45.80;;
66927;SDS011;59882;45.624;11.698;2024-01-30T02:42:50;84.53;;;48.42;;
66927;SDS011;59882;45.624;11.698;2024-01-30T02:45:16;81.10;;;46.93;;
66927;SDS011;59882;45.624;11.698;2024-01-30T02:47:42;78.25;;;46.70;;
66927;SDS011;59882;45.624;11.698;2024-01-30T02:50:08;89.70;;;50.17;;
66927;SDS011;59882;45.624;11.698;2024-01-30T02:52:34;81.05;;;48.00;;
66927;SDS011;59882;45.624;11.698;2024-01-30T02:54:59;82.95;;;48.90;;
66927;SDS011;59882;45.624;11.698;2024-01-30T02:57:25;77.27;;;46.93;;
66927;SDS011;59882;45.624;11.698;2024-01-30T02:59:51;79.35;;;45.75;;
66927;SDS011;59882;45.624;11.698;2024-01-30T03:02:17;83.27;;;46.97;;
66927;SDS011;59882;45.624;11.698;2024-01-30T03:04:43;80.35;;;46.65;;
66927;SDS011;59882;45.624;11.698;2024-01-30T03:07:08;83.40;;;47.50;;
66927;SDS011;59882;45.624;11.698;2024-01-30T03:09:34;73.23;;;44.60;;
66927;SDS011;59882;45.624;11.698;2024-01-30T03:12:01;78.85;;;46.13;;
66927;SDS011;59882;45.624;11.698;2024-01-30T03:14:27;78.40;;;45.27;;
66927;SDS011;59882;45.624;11.698;2024-01-30T03:16:52;73.82;;;44.50;;
66927;SDS011;59882;45.624;11.698;2024-01-30T03:19:18;78.93;;;45.40;;
66927;SDS011;59882;45.624;11.698;2024-01-30T03:21:43;75.40;;;43.40;;
66927;SDS011;59882;45.624;11.698;2024-01-30T03:24:09;72.53;;;43.50;;
66927;SDS011;59882;45.624;11.698;2024-01-30T03:26:35;75.03;;;44.50;;
66927;SDS011;59882;45.624;11.698;2024-01-30T03:29:01;73.30;;;44.00;;
66927;SDS011;59882;45.624;11.698;2024-01-30T03:31:26;71.15;;;43.25;;
66927;SDS011;59882;45.624;11.698;2024-01-30T03:33:52;74.97;;;44.77;;
66927;SDS011;59882;45.624;11.698;2024-01-30T03:36:17;72.28;;;42.45;;
66927;SDS011;59882;45.624;11.698;2024-01-30T03:38:43;70.83;;;41.03;;
66927;SDS011;59882;45.624;11.698;2024-01-30T03:41:09;71.43;;;40.05;;
66927;SDS011;59882;45.624;11.698;2024-01-30T03:43:35;66.93;;;40.33;;
66927;SDS011;59882;45.624;11.698;2024-01-30T03:46:01;68.30;;;41.13;;
66927;SDS011;59882;45.624;11.698;2024-01-30T03:48:28;69.15;;;41.42;;
66927;SDS011;59882;45.624;11.698;2024-01-30T03:50:54;70.28;;;40.85;;
66927;SDS011;59882;45.624;11.698;2024-01-30T03:53:20;63.67;;;37.73;;
66927;SDS011;59882;45.624;11.698;2024-01-30T03:55:47;67.82;;;39.75;;
66927;SDS011;59882;45.624;11.698;2024-01-30T03:58:12;70.93;;;40.60;;
66927;SDS011;59882;45.624;11.698;2024-01-30T04:00:38;64.93;;;39.55;;
66927;SDS011;59882;45.624;11.698;2024-01-30T04:03:04;70.03;;;41.58;;
66927;SDS011;59882;45.624;11.698;2024-01-30T04:05:30;67.03;;;40.10;;
66927;SDS011;59882;45.624;11.698;2024-01-30T04:07:55;71.53;;;39.88;;
66927;SDS011;59882;45.624;11.698;2024-01-30T04:10:21;66.73;;;38.37;;
66927;SDS011;59882;45.624;11.698;2024-01-30T04:12:47;69.53;;;38.97;;
66927;SDS011;59882;45.624;11.698;2024-01-30T04:15:13;69.22;;;39.15;;
66927;SDS011;59882;45.624;11.698;2024-01-30T04:17:39;61.45;;;36.53;;
66927;SDS011;59882;45.624;11.698;2024-01-30T04:20:05;73.30;;;44.40;;
66927;SDS011;59882;45.624;11.698;2024-01-30T04:22:31;82.80;;;47.15;;
66927;SDS011;59882;45.624;11.698;2024-01-30T04:24:57;74.38;;;43.40;;
66927;SDS011;59882;45.624;11.698;2024-01-30T04:27:22;65.03;;;39.80;;
66927;SDS011;59882;45.624;11.698;2024-01-30T04:29:48;66.78;;;37.83;;
66927;SDS011;59882;45.624;11.698;2024-01-30T04:32:14;60.77;;;35.63;;
66927;SDS011;59882;45.624;11.698;2024-01-30T04:34:39;66.43;;;36.92;;
66927;SDS011;59882;45.624;11.698;2024-01-30T04:37:05;58.23;;;35.93;;
66927;SDS011;59882;45.624;11.698;2024-01-30T04:39:32;65.88;;;37.65;;
66927;SDS011;59882;45.624;11.698;2024-01-30T04:41:58;61.65;;;36.05;;
66927;SDS011;59882;45.624;11.698;2024-01-30T04:44:24;58.43;;;34.40;;
66927;SDS011;59882;45.624;11.698;2024-01-30T04:46:50;63.88;;;36.53;;
66927;SDS011;59882;45.624;11.698;2024-01-30T04:49:15;61.10;;;36.67;;
66927;SDS011;59882;45.624;11.698;2024-01-30T04:51:41;67.90;;;38.65;;
66927;SDS011;59882;45.624;11.698;2024-01-30T04:54:07;58.77;;;37.37;;
66927;SDS011;59882;45.624;11.698;2024-01-30T04:56:32;60.10;;;36.40;;
66927;SDS011;59882;45.624;11.698;2024-01-30T04:58:58;64.57;;;36.60;;
66927;SDS011;59882;45.624;11.698;2024-01-30T05:01:24;64.20;;;37.97;;
66927;SDS011;59882;45.624;11.698;2024-01-30T05:03:49;61.77;;;36.53;;
66927;SDS011;59882;45.624;11.698;2024-01-30T05:06:23;59.27;;;35.73;;
66927;SDS011;59882;45.624;11.698;2024-01-30T05:08:50;56.57;;;34.23;;
66927;SDS011;59882;45.624;11.698;2024-01-30T05:11:16;58.60;;;35.83;;
66927;SDS011;59882;45.624;11.698;2024-01-30T05:13:41;58.33;;;33.83;;
66927;SDS011;59882;45.624;11.698;2024-01-30T05:16:07;51.78;;;31.63;;
66927;SDS011;59882;45.624;11.698;2024-01-30T05:18:32;55.67;;;31.67;;
66927;SDS011;59882;45.624;11.698;2024-01-30T05:20:58;52.83;;;31.77;;
66927;SDS011;59882;45.624;11.698;2024-01-30T05:23:24;55.95;;;33.42;;
66927;SDS011;59882;45.624;11.698;2024-01-30T05:25:50;56.78;;;33.88;;
66927;SDS011;59882;45.624;11.698;2024-01-30T05:28:16;52.60;;;32.80;;
66927;SDS011;59882;45.624;11.698;2024-01-30T05:30:42;52.07;;;30.40;;
66927;SDS011;59882;45.624;11.698;2024-01-30T05:33:07;53.27;;;30.60;;
66927;SDS011;59882;45.624;11.698;2024-01-30T05:35:33;55.53;;;33.30;;
66927;SDS011;59882;45.624;11.698;2024-01-30T05:37:58;54.13;;;30.93;;
66927;SDS011;59882;45.624;11.698;2024-01-30T05:40:24;55.55;;;30.77;;
66927;SDS011;59882;45.624;11.698;2024-01-30T05:42:50;55.20;;;30.90;;
66927;SDS011;59882;45.624;11.698;2024-01-30T05:45:15;52.90;;;29.80;;
66927;SDS011;59882;45.624;11.698;2024-01-30T05:47:41;55.83;;;30.30;;
66927;SDS011;59882;45.624;11.698;2024-01-30T05:50:06;51.10;;;30.50;;
66927;SDS011;59882;45.624;11.698;2024-01-30T05:52:32;50.88;;;29.45;;
66927;SDS011;59882;45.624;11.698;2024-01-30T05:54:58;49.77;;;29.27;;
66927;SDS011;59882;45.624;11.698;2024-01-30T05:57:24;50.58;;;29.98;;
66927;SDS011;59882;45.624;11.698;2024-01-30T05:59:50;58.03;;;32.20;;
66927;SDS011;59882;45.624;11.698;2024-01-30T06:02:17;57.80;;;32.17;;
66927;SDS011;59882;45.624;11.698;2024-01-30T06:04:42;54.70;;;31.23;;
66927;SDS011;59882;45.624;11.698;2024-01-30T06:07:09;58.22;;;32.67;;
66927;SDS011;59882;45.624;11.698;2024-01-30T06:09:35;57.43;;;33.73;;
66927;SDS011;59882;45.624;11.698;2024-01-30T06:12:00;61.58;;;33.67;;
66927;SDS011;59882;45.624;11.698;2024-01-30T06:14:26;57.53;;;33.03;;
66927;SDS011;59882;45.624;11.698;2024-01-30T06:16:51;55.57;;;33.10;;
66927;SDS011;59882;45.624;11.698;2024-01-30T06:19:17;61.03;;;33.58;;
66927;SDS011;59882;45.624;11.698;2024-01-30T06:21:43;53.70;;;31.67;;
66927;SDS011;59882;45.624;11.698;2024-01-30T06:24:09;53.05;;;31.17;;
66927;SDS011;59882;45.624;11.698;2024-01-30T06:26:34;52.40;;;32.27;;
66927;SDS011;59882;45.624;11.698;2024-01-30T06:29:00;56.25;;;33.97;;
66927;SDS011;59882;45.624;11.698;2024-01-30T06:31:26;55.78;;;33.22;;
66927;SDS011;59882;45.624;11.698;2024-01-30T06:33:51;53.43;;;32.97;;
66927;SDS011;59882;45.624;11.698;2024-01-30T06:36:18;55.83;;;31.65;;
66927;SDS011;59882;45.624;11.698;2024-01-30T06:38:43;53.33;;;31.70;;
66927;SDS011;59882;45.624;11.698;2024-01-30T06:41:09;55.10;;;33.15;;
66927;SDS011;59882;45.624;11.698;2024-01-30T06:43:35;50.53;;;32.67;;
66927;SDS011;59882;45.624;11.698;2024-01-30T06:46:00;51.37;;;31.77;;
66927;SDS011;59882;45.624;11.698;2024-01-30T06:48:26;55.13;;;32.40;;
66927;SDS011;59882;45.624;11.698;2024-01-30T06:50:54;60.33;;;34.40;;
66927;SDS011;59882;45.624;11.698;2024-01-30T06:53:20;51.08;;;31.15;;
66927;SDS011;59882;45.624;11.698;2024-01-30T06:55:45;53.70;;;32.17;;
66927;SDS011;59882;45.624;11.698;2024-01-30T06:58:11;55.13;;;31.98;;
66927;SDS011;59882;45.624;11.698;2024-01-30T07:00:37;62.22;;;34.03;;
66927;SDS011;59882;45.624;11.698;2024-01-30T07:03:03;65.03;;;34.30;;
66927;SDS011;59882;45.624;11.698;2024-01-30T07:05:29;79.50;;;39.53;;
66927;SDS011;59882;45.624;11.698;2024-01-30T07:07:54;85.07;;;41.73;;
66927;SDS011;59882;45.624;11.698;2024-01-30T07:10:20;73.00;;;39.05;;
66927;SDS011;59882;45.624;11.698;2024-01-30T07:12:46;62.77;;;34.90;;
66927;SDS011;59882;45.624;11.698;2024-01-30T07:15:11;55.72;;;33.55;;
66927;SDS011;59882;45.624;11.698;2024-01-30T07:17:39;60.63;;;34.53;;
66927;SDS011;59882;45.624;11.698;2024-01-30T07:20:05;56.63;;;34.13;;
66927;SDS011;59882;45.624;11.698;2024-01-30T07:22:32;51.00;;;31.83;;
66927;SDS011;59882;45.624;11.698;2024-01-30T07:24:58;46.58;;;28.88;;
66927;SDS011;59882;45.624;11.698;2024-01-30T07:27:24;48.03;;;29.33;;
66927;SDS011;59882;45.624;11.698;2024-01-30T07:29:50;43.22;;;26.42;;
66927;SDS011;59882;45.624;11.698;2024-01-30T07:32:15;43.97;;;26.47;;
66927;SDS011;59882;45.624;11.698;2024-01-30T07:34:41;42.67;;;27.53;;
66927;SDS011;59882;45.624;11.698;2024-01-30T07:37:06;40.07;;;26.93;;
66927;SDS011;59882;45.624;11.698;2024-01-30T07:39:33;45.58;;;27.75;;
66927;SDS011;59882;45.624;11.698;2024-01-30T07:41:59;45.33;;;28.58;;
66927;SDS011;59882;45.624;11.698;2024-01-30T07:44:25;38.77;;;25.30;;
66927;SDS011;59882;45.624;11.698;2024-01-30T07:46:51;41.23;;;25.33;;
66927;SDS011;59882;45.624;11.698;2024-01-30T07:49:16;42.08;;;24.83;;
66927;SDS011;59882;45.624;11.698;2024-01-30T07:51:42;45.47;;;25.93;;
66927;SDS011;59882;45.624;11.698;2024-01-30T07:54:11;45.88;;;27.33;;
66927;SDS011;59882;45.624;11.698;2024-01-30T07:56:40;49.25;;;28.33;;
66927;SDS011;59882;45.624;11.698;2024-01-30T07:59:09;46.30;;;29.13;;
66927;SDS011;59882;45.624;11.698;2024-01-30T08:01:36;77.53;;;39.10;;
66927;SDS011;59882;45.624;11.698;2024-01-30T08:04:01;44.08;;;25.63;;
66927;SDS011;59882;45.624;11.698;2024-01-30T08:06:27;44.27;;;27.50;;
66927;SDS011;59882;45.624;11.698;2024-01-30T08:08:52;41.72;;;26.08;;
66927;SDS011;59882;45.624;11.698;2024-01-30T08:11:21;42.70;;;25.77;;
66927;SDS011;59882;45.624;11.698;2024-01-30T08:13:54;43.60;;;26.55;;
66927;SDS011;59882;45.624;11.698;2024-01-30T08:16:20;43.47;;;26.80;;
66927;SDS011;59882;45.624;11.698;2024-01-30T08:18:46;88.87;;;45.67;;
66927;SDS011;59882;45.624;11.698;2024-01-30T08:21:11;94.07;;;48.80;;
66927;SDS011;59882;45.624;11.698;2024-01-30T08:23:40;50.33;;;29.90;;
66927;SDS011;59882;45.624;11.698;2024-01-30T08:26:06;45.95;;;28.75;;
66927;SDS011;59882;45.624;11.698;2024-01-30T08:28:32;43.27;;;26.87;;
66927;SDS011;59882;45.624;11.698;2024-01-30T08:30:58;43.55;;;25.95;;
66927;SDS011;59882;45.624;11.698;2024-01-30T08:33:23;42.30;;;26.98;;
66927;SDS011;59882;45.624;11.698;2024-01-30T08:35:49;39.30;;;25.90;;
66927;SDS011;59882;45.624;11.698;2024-01-30T08:38:14;50.47;;;28.97;;
66927;SDS011;59882;45.624;11.698;2024-01-30T08:40:40;38.95;;;25.55;;
66927;SDS011;59882;45.624;11.698;2024-01-30T08:43:06;74.63;;;40.43;;
66927;SDS011;59882;45.624;11.698;2024-01-30T08:45:31;78.72;;;42.70;;
66927;SDS011;59882;45.624;11.698;2024-01-30T08:47:57;51.37;;;31.83;;
66927;SDS011;59882;45.624;11.698;2024-01-30T08:50:22;40.77;;;26.53;;
66927;SDS011;59882;45.624;11.698;2024-01-30T08:52:48;39.03;;;25.63;;
66927;SDS011;59882;45.624;11.698;2024-01-30T08:55:13;38.37;;;25.13;;
66927;SDS011;59882;45.624;11.698;2024-01-30T08:57:39;42.55;;;27.00;;
66927;SDS011;59882;45.624;11.698;2024-01-30T09:00:05;41.17;;;26.13;;
66927;SDS011;59882;45.624;11.698;2024-01-30T09:02:34;45.45;;;28.52;;
66927;SDS011;59882;45.624;11.698;2024-01-30T09:04:59;40.60;;;26.00;;
66927;SDS011;59882;45.624;11.698;2024-01-30T09:07:25;40.20;;;25.63;;
66927;SDS011;59882;45.624;11.698;2024-01-30T09:09:51;40.23;;;25.20;;
66927;SDS011;59882;45.624;11.698;2024-01-30T09:12:16;41.55;;;25.98;;
66927;SDS011;59882;45.624;11.698;2024-01-30T09:14:42;40.00;;;26.73;;
66927;SDS011;59882;45.624;11.698;2024-01-30T09:17:08;42.17;;;26.03;;
66927;SDS011;59882;45.624;11.698;2024-01-30T09:19:33;41.92;;;26.60;;
66927;SDS011;59882;45.624;11.698;2024-01-30T09:21:59;43.00;;;26.73;;
66927;SDS011;59882;45.624;11.698;2024-01-30T09:24:25;36.90;;;24.67;;
66927;SDS011;59882;45.624;11.698;2024-01-30T09:26:51;43.55;;;26.13;;
66927;SDS011;59882;45.624;11.698;2024-01-30T09:29:17;41.30;;;25.17;;
66927;SDS011;59882;45.624;11.698;2024-01-30T09:31:46;37.80;;;24.80;;
66927;SDS011;59882;45.624;11.698;2024-01-30T09:34:12;48.63;;;27.67;;
66927;SDS011;59882;45.624;11.698;2024-01-30T09:36:38;41.60;;;26.87;;
66927;SDS011;59882;45.624;11.698;2024-01-30T09:39:04;38.97;;;25.20;;
66927;SDS011;59882;45.624;11.698;2024-01-30T09:41:32;35.13;;;23.77;;
66927;SDS011;59882;45.624;11.698;2024-01-30T09:43:59;40.97;;;25.83;;
66927;SDS011;59882;45.624;11.698;2024-01-30T09:46:27;43.97;;;25.83;;
66927;SDS011;59882;45.624;11.698;2024-01-30T09:48:55;34.60;;;24.13;;
66927;SDS011;59882;45.624;11.698;2024-01-30T09:51:22;35.97;;;23.35;;
66927;SDS011;59882;45.624;11.698;2024-01-30T09:53:49;39.10;;;24.67;;
66927;SDS011;59882;45.624;11.698;2024-01-30T09:56:14;42.17;;;25.70;;
66927;SDS011;59882;45.624;11.698;2024-01-30T09:58:41;37.20;;;24.20;;
66927;SDS011;59882;45.624;11.698;2024-01-30T10:01:07;40.83;;;24.30;;
66927;SDS011;59882;45.624;11.698;2024-01-30T10:03:33;42.37;;;25.53;;
66927;SDS011;59882;45.624;11.698;2024-01-30T10:05:59;37.92;;;24.75;;
66927;SDS011;59882;45.624;11.698;2024-01-30T10:08:26;42.25;;;25.35;;
66927;SDS011;59882;45.624;11.698;2024-01-30T10:10:51;41.88;;;24.83;;
66927;SDS011;59882;45.624;11.698;2024-01-30T10:13:17;43.27;;;25.50;;
66927;SDS011;59882;45.624;11.698;2024-01-30T10:15:43;43.20;;;26.35;;
66927;SDS011;59882;45.624;11.698;2024-01-30T10:18:10;40.13;;;25.70;;
66927;SDS011;59882;45.624;11.698;2024-01-30T10:20:36;39.03;;;25.27;;
66927;SDS011;59882;45.624;11.698;2024-01-30T10:23:02;40.33;;;25.30;;
66927;SDS011;59882;45.624;11.698;2024-01-30T10:25:28;42.50;;;25.92;;
66927;SDS011;59882;45.624;11.698;2024-01-30T10:27:56;40.20;;;25.65;;
66927;SDS011;59882;45.624;11.698;2024-01-30T10:30:22;41.20;;;27.70;;
66927;SDS011;59882;45.624;11.698;2024-01-30T10:32:48;44.35;;;26.95;;
66927;SDS011;59882;45.624;11.698;2024-01-30T10:35:14;44.40;;;28.55;;
66927;SDS011;59882;45.624;11.698;2024-01-30T10:37:43;44.35;;;28.60;;
66927;SDS011;59882;45.624;11.698;2024-01-30T10:40:09;40.88;;;27.60;;
66927;SDS011;59882;45.624;11.698;2024-01-30T10:42:38;42.67;;;28.50;;
66927;SDS011;59882;45.624;11.698;2024-01-30T10:45:12;43.00;;;27.05;;
66927;SDS011;59882;45.624;11.698;2024-01-30T10:47:52;44.17;;;24.63;;
66927;SDS011;59882;45.624;11.698;2024-01-30T10:50:19;39.97;;;24.17;;
66927;SDS011;59882;45.624;11.698;2024-01-30T10:52:45;38.55;;;24.85;;
66927;SDS011;59882;45.624;11.698;2024-01-30T10:55:12;42.37;;;25.03;;
66927;SDS011;59882;45.624;11.698;2024-01-30T10:57:40;36.70;;;23.08;;
66927;SDS011;59882;45.624;11.698;2024-01-30T11:00:07;35.40;;;22.00;;
66927;SDS011;59882;45.624;11.698;2024-01-30T11:02:40;35.60;;;22.63;;
66927;SDS011;59882;45.624;11.698;2024-01-30T11:05:08;37.60;;;23.00;;
66927;SDS011;59882;45.624;11.698;2024-01-30T11:07:34;37.55;;;24.42;;
66927;SDS011;59882;45.624;11.698;2024-01-30T11:10:03;34.05;;;23.90;;
66927;SDS011;59882;45.624;11.698;2024-01-30T11:12:30;34.38;;;23.27;;
66927;SDS011;59882;45.624;11.698;2024-01-30T11:15:09;33.57;;;21.50;;
66927;SDS011;59882;45.624;11.698;2024-01-30T11:22:48;35.55;;;21.83;;
66927;SDS011;59882;45.624;11.698;2024-01-30T11:25:16;37.72;;;22.13;;
66927;SDS011;59882;45.624;11.698;2024-01-30T11:27:44;34.53;;;20.53;;
66927;SDS011;59882;45.624;11.698;2024-01-30T11:30:20;34.50;;;22.70;;
66927;SDS011;59882;45.624;11.698;2024-01-30T11:35:30;33.10;;;21.88;;
66927;SDS011;59882;45.624;11.698;2024-01-30T11:38:00;35.47;;;20.58;;
66927;SDS011;59882;45.624;11.698;2024-01-30T11:40:27;36.07;;;20.83;;
66927;SDS011;59882;45.624;11.698;2024-01-30T11:42:54;34.67;;;22.67;;
66927;SDS011;59882;45.624;11.698;2024-01-30T11:45:20;33.20;;;21.90;;
66927;SDS011;59882;45.624;11.698;2024-01-30T11:47:46;35.17;;;23.30;;
66927;SDS011;59882;45.624;11.698;2024-01-30T11:50:12;32.95;;;21.20;;
66927;SDS011;59882;45.624;11.698;2024-01-30T11:52:39;35.28;;;22.92;;
66927;SDS011;59882;45.624;11.698;2024-01-30T11:55:05;39.47;;;22.40;;
66927;SDS011;59882;45.624;11.698;2024-01-30T11:57:31;33.88;;;21.00;;
66927;SDS011;59882;45.624;11.698;2024-01-30T11:59:56;40.77;;;24.00;;
66927;SDS011;59882;45.624;11.698;2024-01-30T12:02:22;33.97;;;22.87;;
66927;SDS011;59882;45.624;11.698;2024-01-30T12:04:48;34.10;;;22.97;;
66927;SDS011;59882;45.624;11.698;2024-01-30T12:07:13;35.00;;;22.33;;
66927;SDS011;59882;45.624;11.698;2024-01-30T12:09:42;39.75;;;24.45;;
66927;SDS011;59882;45.624;11.698;2024-01-30T12:12:07;34.90;;;23.00;;
66927;SDS011;59882;45.624;11.698;2024-01-30T12:14:37;36.67;;;23.50;;
66927;SDS011;59882;45.624;11.698;2024-01-30T12:17:04;34.97;;;24.08;;
66927;SDS011;59882;45.624;11.698;2024-01-30T12:19:30;36.40;;;23.20;;
66927;SDS011;59882;45.624;11.698;2024-01-30T12:21:56;35.60;;;24.17;;
66927;SDS011;59882;45.624;11.698;2024-01-30T12:24:24;33.22;;;22.17;;
66927;SDS011;59882;45.624;11.698;2024-01-30T12:26:58;29.50;;;22.05;;
66927;SDS011;59882;45.624;11.698;2024-01-30T12:29:25;32.10;;;22.42;;
66927;SDS011;59882;45.624;11.698;2024-01-30T12:31:54;28.53;;;21.20;;
66927;SDS011;59882;45.624;11.698;2024-01-30T12:34:20;31.65;;;21.67;;
66927;SDS011;59882;45.624;11.698;2024-01-30T12:36:49;28.35;;;20.85;;
66927;SDS011;59882;45.624;11.698;2024-01-30T12:39:15;28.17;;;20.67;;
66927;SDS011;59882;45.624;11.698;2024-01-30T12:41:41;31.65;;;21.05;;
66927;SDS011;59882;45.624;11.698;2024-01-30T12:44:06;26.13;;;19.75;;
66927;SDS011;59882;45.624;11.698;2024-01-30T12:46:34;30.53;;;22.63;;
66927;SDS011;59882;45.624;11.698;2024-01-30T12:48:59;27.42;;;21.02;;
66927;SDS011;59882;45.624;11.698;2024-01-30T12:51:25;28.45;;;20.08;;
66927;SDS011;59882;45.624;11.698;2024-01-30T12:53:51;32.77;;;21.60;;
66927;SDS011;59882;45.624;11.698;2024-01-30T12:56:17;31.83;;;21.80;;
66927;SDS011;59882;45.624;11.698;2024-01-30T12:58:42;29.10;;;21.80;;
66927;SDS011;59882;45.624;11.698;2024-01-30T13:01:08;31.47;;;23.93;;
66927;SDS011;59882;45.624;11.698;2024-01-30T13:03:34;34.73;;;22.33;;
66927;SDS011;59882;45.624;11.698;2024-01-30T13:06:00;33.90;;;23.23;;
66927;SDS011;59882;45.624;11.698;2024-01-30T13:08:26;27.60;;;20.47;;
66927;SDS011;59882;45.624;11.698;2024-01-30T13:10:51;31.87;;;23.33;;
66927;SDS011;59882;45.624;11.698;2024-01-30T13:13:17;29.20;;;23.43;;
66927;SDS011;59882;45.624;11.698;2024-01-30T13:15:42;29.85;;;23.02;;
66927;SDS011;59882;45.624;11.698;2024-01-30T13:18:08;34.60;;;22.50;;
66927;SDS011;59882;45.624;11.698;2024-01-30T13:20:33;32.80;;;22.30;;
66927;SDS011;59882;45.624;11.698;2024-01-30T13:22:59;26.02;;;21.08;;
66927;SDS011;59882;45.624;11.698;2024-01-30T13:25:25;31.57;;;23.57;;
66927;SDS011;59882;45.624;11.698;2024-01-30T13:27:51;30.75;;;24.00;;
66927;SDS011;59882;45.624;11.698;2024-01-30T13:30:16;27.13;;;22.07;;
66927;SDS011;59882;45.624;11.698;2024-01-30T13:32:42;31.08;;;23.50;;
66927;SDS011;59882;45.624;11.698;2024-01-30T13:35:09;31.30;;;23.90;;
66927;SDS011;59882;45.624;11.698;2024-01-30T13:37:35;30.80;;;23.57;;
66927;SDS011;59882;45.624;11.698;2024-01-30T13:40:01;31.25;;;23.00;;
66927;SDS011;59882;45.624;11.698;2024-01-30T13:42:31;30.40;;;23.50;;
66927;SDS011;59882;45.624;11.698;2024-01-30T13:44:57;29.55;;;22.63;;
66927;SDS011;59882;45.624;11.698;2024-01-30T13:47:23;28.53;;;21.60;;
66927;SDS011;59882;45.624;11.698;2024-01-30T13:49:50;28.77;;;23.20;;
66927;SDS011;59882;45.624;11.698;2024-01-30T13:52:17;33.58;;;24.38;;
66927;SDS011;59882;45.624;11.698;2024-01-30T13:54:43;28.93;;;22.30;;
66927;SDS011;59882;45.624;11.698;2024-01-30T13:57:08;31.92;;;24.80;;
66927;SDS011;59882;45.624;11.698;2024-01-30T13:59:34;29.97;;;23.00;;
66927;SDS011;59882;45.624;11.698;2024-01-30T14:02:00;29.73;;;23.38;;
66927;SDS011;59882;45.624;11.698;2024-01-30T14:04:25;33.37;;;25.20;;
66927;SDS011;59882;45.624;11.698;2024-01-30T14:06:51;31.60;;;23.83;;
66927;SDS011;59882;45.624;11.698;2024-01-30T14:09:17;34.15;;;26.13;;
66927;SDS011;59882;45.624;11.698;2024-01-30T14:11:42;32.73;;;24.60;;